Time;durP1;ratioP1;P1;durP2;ratioP2;P2;SDS_P1;SDS_P2;PMS_P1;PMS_P2;Temp;Humidity;BMP_temperature;BMP_pressure;BME280_temperature;BME280_humidity;BME280_pressure;Samples;Min_cycle;Max_cycle;Signal;HPM_P1;HPM_P2
2021/03/03 00:00:08;;;;;;;69.83;48.00;;;;;;;2.08;73.08;102055.45;123476;1106;104242;-84
2021/03/03 00:02:38;;;;;;;60.80;46.73;;;;;;;2.10;72.71;102057.30;123646;1105;104329;-85
2021/03/03 00:05:19;;;;;;;68.70;44.20;;;;;;;2.18;72.85;102057.56;123223;1105;104395;-85
2021/03/03 00:07:48;;;;;;;58.15;46.35;;;;;;;2.24;73.09;102049.91;123614;1105;104833;-85
2021/03/03 00:10:31;;;;;;;65.20;48.25;;;;;;;2.29;73.67;102043.08;123216;1109;104871;-85
2021/03/03 00:12:58;;;;;;;64.87;46.40;;;;;;;2.29;72.92;102048.34;123681;1109;105274;-86
2021/03/03 00:15:25;;;;;;;65.73;47.40;;;;;;;2.38;72.92;102053.00;123663;1106;104221;-85
2021/03/03 00:17:51;;;;;;;71.23;51.63;;;;;;;2.43;73.33;102048.79;123628;1105;105159;-85
2021/03/03 00:20:18;;;;;;;61.30;47.75;;;;;;;2.45;72.35;102047.13;123954;1105;104680;-85
2021/03/03 00:22:44;;;;;;;66.42;49.80;;;;;;;2.46;73.68;102045.38;123799;1105;104300;-85
2021/03/03 00:25:11;;;;;;;65.13;48.30;;;;;;;2.53;73.20;102044.72;124002;1105;104386;-85
2021/03/03 00:27:40;;;;;;;65.30;50.50;;;;;;;2.64;72.88;102038.09;123677;1105;104213;-84
2021/03/03 00:30:15;;;;;;;70.23;49.73;;;;;;;2.72;72.51;102040.06;123789;1105;104229;-84
2021/03/03 00:32:48;;;;;;;66.85;48.98;;;;;;;2.75;71.91;102033.18;123843;1105;104204;-83
2021/03/03 00:35:15;;;;;;;69.77;49.03;;;;;;;2.53;72.42;102034.20;123695;1105;104262;-83
2021/03/03 00:37:43;;;;;;;67.67;53.30;;;;;;;2.51;72.35;102028.89;123751;1105;104983;-84
2021/03/03 00:40:16;;;;;;;64.87;50.43;;;;;;;2.61;72.96;102034.46;123476;1105;104232;-85
2021/03/03 00:42:43;;;;;;;55.60;39.17;;;;;;;2.45;73.22;102030.43;123666;1105;104303;-83
2021/03/03 00:45:10;;;;;;;69.00;48.30;;;;;;;2.27;73.16;102033.34;123605;1105;104220;-84
2021/03/03 00:47:37;;;;;;;73.42;48.80;;;;;;;2.37;73.32;102034.55;123503;1105;104232;-84
2021/03/03 00:50:04;;;;;;;57.30;40.27;;;;;;;2.43;74.63;102038.27;123290;1105;104262;-84
2021/03/03 00:52:31;;;;;;;62.73;49.33;;;;;;;2.30;74.11;102031.69;122933;1105;104534;-84
2021/03/03 00:54:59;;;;;;;63.87;49.30;;;;;;;2.42;74.29;102041.73;122872;1105;104249;-84
2021/03/03 00:57:25;;;;;;;66.72;48.95;;;;;;;2.47;73.64;102048.05;123053;1105;104235;-85
2021/03/03 00:59:52;;;;;;;60.50;42.33;;;;;;;2.41;73.39;102039.94;123195;1105;104386;-85
2021/03/03 01:02:19;;;;;;;68.12;45.78;;;;;;;2.42;73.54;102046.11;123204;1105;104350;-85
2021/03/03 01:04:45;;;;;;;59.70;45.10;;;;;;;2.49;73.66;102037.58;123426;1105;104341;-84
2021/03/03 01:07:15;;;;;;;54.80;45.05;;;;;;;2.53;73.66;102036.83;123232;1105;104421;-85
2021/03/03 01:09:41;;;;;;;67.17;49.00;;;;;;;2.37;73.30;102030.16;123159;1105;104255;-84
2021/03/03 01:12:09;;;;;;;69.90;47.80;;;;;;;2.35;74.77;102026.61;123130;1105;104353;-86
2021/03/03 01:14:36;;;;;;;67.60;49.47;;;;;;;2.42;73.94;102025.08;123407;1105;104332;-83
2021/03/03 01:17:03;;;;;;;74.67;53.75;;;;;;;2.53;73.90;102013.16;122922;1105;104220;-85
2021/03/03 01:19:45;;;;;;;63.63;48.98;;;;;;;2.54;73.77;102008.81;122625;1109;104506;-85
2021/03/03 01:22:15;;;;;;;61.87;41.10;;;;;;;2.38;74.32;102005.67;123383;1109;104926;-85
2021/03/03 01:24:43;;;;;;;70.43;49.47;;;;;;;2.35;74.40;102010.83;123534;1109;104303;-85
2021/03/03 01:27:14;;;;;;;62.05;43.40;;;;;;;2.30;74.14;102002.77;123648;1107;104252;-85
2021/03/03 01:29:42;;;;;;;55.83;39.38;;;;;;;2.12;74.69;102012.66;123532;1109;105253;-85
2021/03/03 01:32:11;;;;;;;63.50;45.38;;;;;;;2.01;75.27;102007.04;123618;1108;104797;-85
2021/03/03 01:34:38;;;;;;;65.40;48.00;;;;;;;1.99;75.07;102012.24;123588;1109;104300;-83
2021/03/03 01:37:06;;;;;;;68.97;46.93;;;;;;;2.15;75.34;101995.27;123524;1109;104364;-85
2021/03/03 01:39:47;;;;;;;70.83;52.88;;;;;;;2.37;75.26;101993.36;123593;1108;104620;-84
2021/03/03 01:42:16;;;;;;;70.62;52.48;;;;;;;2.47;74.38;102000.72;123479;1109;104422;-85
2021/03/03 01:44:42;;;;;;;73.40;54.10;;;;;;;2.56;73.98;101994.88;123455;1109;104869;-85
2021/03/03 01:47:10;;;;;;;66.43;47.83;;;;;;;2.62;73.99;101988.91;123596;1108;104466;-83
2021/03/03 01:49:37;;;;;;;72.60;50.67;;;;;;;2.60;73.88;101980.98;123414;1109;104188;-84
2021/03/03 01:52:19;;;;;;;73.70;47.40;;;;;;;2.56;74.08;101986.07;123190;1109;105071;-84
2021/03/03 01:54:47;;;;;;;69.42;51.00;;;;;;;2.45;74.11;101984.02;123157;1109;105169;-84
2021/03/03 01:57:14;;;;;;;75.35;56.10;;;;;;;2.57;74.14;101987.87;123238;1105;104466;-85
2021/03/03 01:59:41;;;;;;;65.43;46.33;;;;;;;2.61;73.81;101981.86;123805;1105;104146;-85
2021/03/03 02:02:07;;;;;;;62.03;47.17;;;;;;;2.61;73.12;101977.51;123752;1105;104183;-85
2021/03/03 02:04:35;;;;;;;66.72;48.90;;;;;;;2.60;73.56;101977.44;123752;1105;104543;-84
2021/03/03 02:07:07;;;;;;;64.45;48.95;;;;;;;2.59;73.05;101975.67;123770;1105;104294;-85
2021/03/03 02:09:48;;;;;;;64.07;47.58;;;;;;;2.59;73.79;101973.92;123802;1105;104239;-85
2021/03/03 02:12:27;;;;;;;68.80;46.37;;;;;;;2.68;73.25;101978.59;123688;1105;104383;-84
2021/03/03 02:14:57;;;;;;;78.27;53.53;;;;;;;2.72;73.58;101975.22;123687;1105;104163;-84
2021/03/03 02:17:25;;;;;;;69.30;47.70;;;;;;;2.72;73.52;101971.67;123767;1105;104249;-84
2021/03/03 02:19:51;;;;;;;70.50;52.05;;;;;;;2.71;73.49;101973.42;123523;1105;105025;-84
2021/03/03 02:22:57;;;;;;;72.20;49.17;;;;;;;2.67;73.25;101972.42;123564;1105;104403;-84
2021/03/03 02:25:40;;;;;;;70.47;49.83;;;;;;;2.73;72.79;101976.09;123607;1105;104704;-85
2021/03/03 02:28:22;;;;;;;70.60;47.90;;;;;;;2.62;73.30;101976.64;123502;1109;104814;-83
2021/03/03 02:31:05;;;;;;;76.33;51.10;;;;;;;2.46;73.28;101974.38;123155;1112;104517;-85
2021/03/03 02:33:50;;;;;;;59.00;44.13;;;;;;;2.37;74.48;101972.32;123212;1112;105038;-85
2021/03/03 02:36:24;;;;;;;64.50;45.50;;;;;;;2.25;74.68;101974.55;123373;1108;104310;-85
2021/03/03 02:38:58;;;;;;;58.02;41.75;;;;;;;2.24;74.23;101972.76;123656;1109;104329;-85
2021/03/03 02:41:25;;;;;;;67.53;44.07;;;;;;;2.12;74.12;101975.87;123547;1106;104395;-85
2021/03/03 02:43:52;;;;;;;52.15;36.42;;;;;;;1.97;75.56;101971.91;123474;1106;104222;-85
2021/03/03 02:46:20;;;;;;;59.45;43.87;;;;;;;1.91;75.54;101978.69;123393;1104;104462;-85
2021/03/03 02:48:47;;;;;;;60.10;40.80;;;;;;;2.00;75.96;101968.49;123581;1105;104922;-85
2021/03/03 02:51:17;;;;;;;62.15;43.55;;;;;;;1.92;75.82;101977.81;123839;1105;104693;-85
2021/03/03 02:53:59;;;;;;;57.95;41.23;;;;;;;1.82;75.28;101973.98;123747;1105;104259;-85
2021/03/03 02:56:40;;;;;;;57.03;35.57;;;;;;;1.72;76.15;101975.41;123625;1106;104296;-85
2021/03/03 02:59:17;;;;;;;56.55;40.12;;;;;;;1.64;76.71;101977.75;123782;1106;104444;-84
2021/03/03 03:01:59;;;;;;;58.90;40.90;;;;;;;1.78;76.02;101974.72;123775;1106;104316;-84
2021/03/03 03:04:30;;;;;;;53.03;39.43;;;;;;;1.92;76.25;101973.47;123820;1106;104149;-85
2021/03/03 03:06:57;;;;;;;63.05;43.28;;;;;;;2.02;76.01;101969.42;123731;1105;104220;-85
2021/03/03 03:09:25;;;;;;;65.73;40.60;;;;;;;2.11;75.88;101972.36;123712;1105;104875;-85
2021/03/03 03:11:54;;;;;;;59.23;38.80;;;;;;;2.08;75.58;101972.27;123840;1105;104309;-85
2021/03/03 03:14:25;;;;;;;55.67;42.37;;;;;;;2.12;76.09;101966.27;123562;1105;105098;-85
2021/03/03 03:16:52;;;;;;;72.95;46.15;;;;;;;1.99;75.63;101975.45;123661;1105;104245;-85
2021/03/03 03:19:24;;;;;;;68.57;45.15;;;;;;;2.04;76.32;101970.38;123713;1105;104342;-85
2021/03/03 03:21:56;;;;;;;66.80;45.30;;;;;;;2.15;75.10;101976.88;123673;1105;104252;-85
2021/03/03 03:24:26;;;;;;;62.33;45.00;;;;;;;2.21;75.93;101970.92;123725;1105;104287;-84
2021/03/03 03:26:58;;;;;;;69.97;48.42;;;;;;;2.08;75.46;101969.64;123472;1106;104143;-86
2021/03/03 03:29:25;;;;;;;64.53;43.30;;;;;;;1.98;75.94;101972.78;123740;1105;104335;-85
2021/03/03 03:31:53;;;;;;;61.92;42.62;;;;;;;1.90;75.96;101964.63;123844;1105;105063;-85
2021/03/03 03:34:20;;;;;;;54.20;36.50;;;;;;;1.92;76.21;101960.34;123937;1105;104252;-85
2021/03/03 03:36:47;;;;;;;65.83;43.57;;;;;;;1.80;76.65;101958.17;123641;1105;104304;-85
2021/03/03 03:39:14;;;;;;;69.17;46.43;;;;;;;1.74;77.06;101962.32;123722;1105;104341;-85
2021/03/03 03:41:42;;;;;;;57.43;42.38;;;;;;;1.84;76.88;101962.69;123666;1105;104225;-85
2021/03/03 03:44:13;;;;;;;56.00;39.43;;;;;;;1.87;76.63;101961.00;123771;1105;104319;-84
2021/03/03 03:46:40;;;;;;;61.90;42.20;;;;;;;1.80;76.84;101960.80;123672;1105;104309;-85
2021/03/03 03:49:07;;;;;;;64.07;47.10;;;;;;;1.80;77.25;101957.27;123780;1105;104640;-84
2021/03/03 03:51:35;;;;;;;63.37;45.23;;;;;;;1.80;77.05;101960.80;123663;1105;104249;-84
2021/03/03 03:54:02;;;;;;;74.32;49.25;;;;;;;1.79;76.78;101960.75;123500;1105;104979;-84
2021/03/03 03:56:28;;;;;;;59.77;41.07;;;;;;;1.80;77.51;101955.55;123802;1105;104306;-84
2021/03/03 03:58:55;;;;;;;64.37;41.80;;;;;;;1.71;77.16;101954.34;123774;1106;104325;-85
2021/03/03 04:01:23;;;;;;;75.23;49.20;;;;;;;1.70;77.53;101957.80;123715;1105;104409;-84
2021/03/03 04:04:04;;;;;;;65.22;43.15;;;;;;;1.87;77.11;101950.48;123622;1105;104329;-85
2021/03/03 04:06:31;;;;;;;66.30;45.33;;;;;;;1.88;77.01;101955.83;123640;1105;104382;-84
2021/03/03 04:08:57;;;;;;;56.55;42.83;;;;;;;1.88;77.44;101949.66;123715;1105;104392;-85
2021/03/03 04:11:24;;;;;;;58.75;40.75;;;;;;;1.81;77.36;101949.46;123598;1105;104255;-85
2021/03/03 04:13:50;;;;;;;58.77;42.67;;;;;;;1.72;77.40;101953.48;123512;1105;104312;-84
2021/03/03 04:16:32;;;;;;;63.97;42.13;;;;;;;1.67;77.60;101946.34;123619;1105;104613;-85
2021/03/03 04:18:59;;;;;;;70.23;43.00;;;;;;;1.71;77.66;101947.34;123525;1105;104302;-84
2021/03/03 04:21:26;;;;;;;64.27;41.35;;;;;;;1.69;77.80;101954.27;123588;1105;104168;-84
2021/03/03 04:23:52;;;;;;;60.00;41.00;;;;;;;1.61;77.94;101947.85;123631;1105;104255;-84
2021/03/03 04:26:19;;;;;;;56.13;40.53;;;;;;;1.49;77.56;101951.84;123506;1105;104431;-84
2021/03/03 04:28:45;;;;;;;50.40;34.58;;;;;;;1.53;77.80;101954.57;123135;1105;104433;-84
2021/03/03 04:31:26;;;;;;;50.60;38.20;;;;;;;1.54;77.81;101956.36;122869;1106;104226;-83
2021/03/03 04:33:53;;;;;;;57.85;40.17;;;;;;;1.64;77.53;101947.95;122809;1105;104284;-84
2021/03/03 04:36:19;;;;;;;60.33;38.70;;;;;;;1.66;77.67;101947.17;122934;1105;104479;-85
2021/03/03 04:38:46;;;;;;;65.20;43.83;;;;;;;1.74;77.05;101944.81;122915;1105;104259;-83
2021/03/03 04:41:12;;;;;;;67.25;45.52;;;;;;;1.70;77.51;101945.55;122943;1105;104261;-85
2021/03/03 04:43:39;;;;;;;62.43;41.28;;;;;;;1.66;77.28;101936.66;123192;1105;104405;-85
2021/03/03 04:46:05;;;;;;;63.90;43.60;;;;;;;1.56;77.91;101936.29;123467;1105;104335;-84
2021/03/03 04:48:32;;;;;;;63.50;43.65;;;;;;;1.54;77.33;101935.36;123686;1105;105031;-84
2021/03/03 04:50:58;;;;;;;50.63;35.60;;;;;;;1.62;77.89;101932.14;123702;1105;104450;-86
2021/03/03 04:53:25;;;;;;;59.65;42.85;;;;;;;1.49;77.52;101937.80;123545;1105;104258;-84
2021/03/03 04:56:06;;;;;;;65.80;42.90;;;;;;;1.48;77.87;101938.63;123466;1105;104299;-84
2021/03/03 04:58:34;;;;;;;52.95;33.85;;;;;;;1.39;77.91;101949.72;123546;1105;104332;-84
2021/03/03 05:01:00;;;;;;;63.47;42.97;;;;;;;1.34;77.84;101940.78;123551;1105;104409;-84
2021/03/03 05:03:33;;;;;;;53.23;37.40;;;;;;;1.33;77.94;101931.11;123570;1105;104418;-85
2021/03/03 05:06:05;;;;;;;73.05;40.45;;;;;;;1.38;77.93;101926.92;123569;1105;104335;-85
2021/03/03 05:08:32;;;;;;;57.50;39.42;;;;;;;1.35;77.81;101932.07;123621;1105;104309;-85
2021/03/03 05:10:58;;;;;;;53.87;36.40;;;;;;;1.24;78.13;101933.39;123358;1105;104206;-85
2021/03/03 05:13:25;;;;;;;52.93;35.70;;;;;;;1.19;78.27;101935.86;123524;1105;104377;-85
2021/03/03 05:15:52;;;;;;;56.70;38.50;;;;;;;1.09;78.33;101923.23;123365;1105;104258;-83
2021/03/03 05:18:19;;;;;;;70.22;41.50;;;;;;;1.08;78.94;101924.97;123584;1105;104230;-83
2021/03/03 05:20:50;;;;;;;63.92;41.88;;;;;;;1.20;79.58;101931.50;123594;1106;104977;-84
2021/03/03 05:23:32;;;;;;;65.00;44.70;;;;;;;1.39;78.93;101926.09;123840;1105;104399;-84
2021/03/03 05:26:01;;;;;;;63.40;41.13;;;;;;;1.49;78.13;101922.97;123689;1105;104637;-84
2021/03/03 05:28:32;;;;;;;41.27;26.53;;;;;;;1.53;78.41;101923.06;123744;1105;104245;-84
2021/03/03 05:31:00;;;;;;;61.47;41.23;;;;;;;1.35;77.89;101924.20;123732;1105;104421;-84
2021/03/03 05:33:43;;;;;;;69.22;39.50;;;;;;;1.41;78.59;101920.89;123731;1105;104237;-84
2021/03/03 05:36:14;;;;;;;54.00;37.23;;;;;;;1.45;78.91;101933.28;123859;1105;104348;-84
2021/03/03 05:38:47;;;;;;;51.47;33.40;;;;;;;1.41;77.41;101934.02;123690;1106;104297;-84
2021/03/03 05:41:29;;;;;;;54.35;36.90;;;;;;;1.21;77.99;101949.92;123682;1105;104319;-84
2021/03/03 05:44:00;;;;;;;57.90;39.53;;;;;;;1.18;78.71;101941.06;123700;1105;104315;-84
2021/03/03 05:46:48;;;;;;;52.90;33.47;;;;;;;1.28;78.28;101940.54;123697;1105;105069;-84
2021/03/03 05:49:20;;;;;;;53.70;32.08;;;;;;;1.09;77.84;101934.61;123752;1105;104822;-84
2021/03/03 05:51:53;;;;;;;42.63;27.47;;;;;;;0.96;78.45;101940.23;123727;1105;104664;-85
2021/03/03 05:54:21;;;;;;;59.75;35.85;;;;;;;0.94;78.45;101929.69;123811;1105;104386;-84
2021/03/03 05:56:50;;;;;;;50.17;33.45;;;;;;;0.91;79.74;101928.70;123713;1105;104248;-83
2021/03/03 05:59:18;;;;;;;54.93;36.37;;;;;;;0.93;79.65;101933.14;123794;1105;104626;-85
2021/03/03 06:01:45;;;;;;;51.40;38.90;;;;;;;1.02;78.97;101929.98;123776;1105;104313;-84
2021/03/03 06:04:21;;;;;;;106.80;72.23;;;;;;;1.14;78.83;101938.30;123812;1105;104364;-85
2021/03/03 06:06:48;;;;;;;46.93;30.80;;;;;;;1.18;78.91;101933.19;123684;1105;104268;-85
2021/03/03 06:09:16;;;;;;;61.25;40.00;;;;;;;1.04;78.64;101936.20;123698;1105;104259;-84
2021/03/03 06:11:47;;;;;;;61.40;39.35;;;;;;;1.04;78.97;101935.28;123706;1105;104392;-83
2021/03/03 06:14:14;;;;;;;61.40;38.70;;;;;;;1.00;78.95;101929.05;123705;1105;104278;-83
2021/03/03 06:16:47;;;;;;;63.50;42.33;;;;;;;1.12;79.27;101929.50;123663;1105;104941;-83
2021/03/03 06:19:14;;;;;;;53.40;31.93;;;;;;;1.17;78.89;101927.03;123689;1106;105005;-83
2021/03/03 06:21:40;;;;;;;43.78;30.08;;;;;;;1.03;78.73;101928.23;123581;1105;104421;-83
2021/03/03 06:24:09;;;;;;;52.95;33.30;;;;;;;0.96;79.13;101924.49;123591;1105;104229;-81
2021/03/03 06:26:55;;;;;;;44.77;32.17;;;;;;;0.91;79.06;101928.70;123447;1105;104254;-82
2021/03/03 06:29:29;;;;;;;58.77;38.73;;;;;;;0.80;79.76;101937.04;123626;1105;104326;-82
2021/03/03 06:32:02;;;;;;;46.88;31.33;;;;;;;0.75;79.64;101933.34;123686;1105;104684;-82
2021/03/03 06:34:50;;;;;;;51.10;37.53;;;;;;;0.79;80.48;101930.00;123712;1106;104206;-82
2021/03/03 06:37:17;;;;;;;63.63;38.93;;;;;;;0.93;79.09;101930.52;123741;1105;105067;-82
2021/03/03 06:39:44;;;;;;;57.80;37.60;;;;;;;1.03;79.84;101922.99;123577;1105;104435;-83
2021/03/03 06:42:24;;;;;;;50.43;37.13;;;;;;;1.07;79.44;101919.67;123545;1106;104252;-83
2021/03/03 06:45:07;;;;;;;50.12;32.73;;;;;;;1.16;78.90;101914.77;123530;1105;104973;-82
2021/03/03 06:47:48;;;;;;;60.80;39.03;;;;;;;1.10;78.52;101915.41;123413;1105;105018;-82
2021/03/03 06:50:18;;;;;;;56.43;36.60;;;;;;;1.13;79.30;101914.63;123498;1105;104210;-83
2021/03/03 06:52:56;;;;;;;55.95;35.55;;;;;;;1.16;79.68;101904.27;123324;1106;104393;-82
2021/03/03 06:55:23;;;;;;;57.75;37.10;;;;;;;1.24;78.71;101904.53;123515;1105;104615;-82
2021/03/03 06:57:50;;;;;;;62.45;41.45;;;;;;;1.27;78.92;101897.66;123676;1105;104428;-82
2021/03/03 07:00:43;;;;;;;50.98;33.63;;;;;;;1.24;78.48;101902.81;123495;1105;104229;-84
2021/03/03 07:03:35;;;;;;;39.03;27.40;;;;;;;1.15;78.90;101908.61;123569;1105;104248;-83
2021/03/03 07:06:08;;;;;;;54.23;35.35;;;;;;;1.10;79.03;101893.54;123749;1105;105022;-83
2021/03/03 07:08:39;;;;;;;57.25;41.40;;;;;;;1.09;79.16;101891.75;123814;1106;104226;-83
2021/03/03 07:11:29;;;;;;;35.63;25.20;;;;;;;1.13;79.46;101893.64;123803;1105;105028;-84
2021/03/03 07:14:02;;;;;;;48.17;34.10;;;;;;;1.11;79.42;101890.09;123812;1105;103195;-84
2021/03/03 07:16:33;;;;;;;40.73;27.50;;;;;;;1.08;79.29;101892.58;123556;1105;104248;-84
2021/03/03 07:19:23;;;;;;;40.03;29.92;;;;;;;1.03;79.32;101886.27;123285;1105;104865;-83
2021/03/03 07:21:50;;;;;;;50.65;33.05;;;;;;;1.07;79.40;101889.08;123581;1105;104252;-83
2021/03/03 07:24:19;;;;;;;45.92;30.82;;;;;;;1.06;79.55;101892.52;123571;1104;104192;-83
2021/03/03 07:26:51;;;;;;;54.67;33.63;;;;;;;0.98;79.35;101886.11;123556;1104;104281;-82
2021/03/03 07:29:23;;;;;;;50.23;33.25;;;;;;;1.04;80.50;101886.34;123414;1105;104254;-83
2021/03/03 07:31:53;;;;;;;39.77;28.70;;;;;;;1.13;80.47;101884.06;123420;1105;104699;-83
2021/03/03 07:34:20;;;;;;;40.05;30.55;;;;;;;1.10;79.03;101883.92;123574;1105;104360;-86
2021/03/03 07:36:50;;;;;;;55.80;39.93;;;;;;;1.08;79.86;101887.33;123418;1105;104336;-83
2021/03/03 07:39:18;;;;;;;53.30;35.23;;;;;;;1.12;79.71;101884.89;123527;1105;105818;-84
2021/03/03 07:41:49;;;;;;;45.83;32.70;;;;;;;1.21;80.33;101881.69;123666;1105;104226;-83
2021/03/03 07:44:20;;;;;;;55.47;35.33;;;;;;;1.30;80.33;101870.64;123443;1105;104707;-83
2021/03/03 07:46:48;;;;;;;50.50;31.00;;;;;;;1.38;80.44;101878.80;123597;1105;104405;-83
2021/03/03 07:49:29;;;;;;;46.48;28.75;;;;;;;1.38;80.10;101884.92;123345;1105;104258;-84
2021/03/03 07:51:57;;;;;;;41.83;29.40;;;;;;;1.40;79.96;101882.34;123675;1105;104267;-82
2021/03/03 07:54:23;;;;;;;39.85;27.07;;;;;;;1.41;79.04;101885.02;123629;1105;104271;-83
2021/03/03 07:56:50;;;;;;;30.12;23.47;;;;;;;1.41;79.68;101879.77;123659;1105;104348;-83
2021/03/03 07:59:17;;;;;;;39.63;28.60;;;;;;;1.43;79.49;101874.60;123544;1105;104287;-82
2021/03/03 08:01:49;;;;;;;37.87;25.87;;;;;;;1.55;79.58;101882.02;123571;1105;104207;-83
2021/03/03 08:04:39;;;;;;;34.98;25.80;;;;;;;1.57;79.86;101889.08;123517;1105;104226;-83
2021/03/03 08:07:33;;;;;;;41.53;25.82;;;;;;;1.53;79.37;101883.68;123484;1105;104296;-83
2021/03/03 08:10:20;;;;;;;33.10;22.70;;;;;;;1.42;79.41;101886.81;123453;1105;104722;-83
2021/03/03 08:12:59;;;;;;;37.47;27.50;;;;;;;1.53;79.67;101873.18;123480;1106;104364;-85
2021/03/03 08:15:46;;;;;;;44.53;31.12;;;;;;;1.65;80.10;101870.96;123672;1105;104255;-83
2021/03/03 08:18:14;;;;;;;42.55;31.87;;;;;;;1.63;80.01;101863.04;123517;1105;104472;-84
2021/03/03 08:20:46;;;;;;;50.95;34.18;;;;;;;1.66;79.87;101867.50;123566;1105;104213;-83
2021/03/03 08:23:33;;;;;;;44.27;28.30;;;;;;;1.72;80.07;101859.84;123688;1105;104293;-84
2021/03/03 08:26:04;;;;;;;31.90;22.60;;;;;;;1.90;79.33;101856.03;123882;1105;104999;-83
2021/03/03 08:28:37;;;;;;;37.77;25.53;;;;;;;1.87;79.37;101848.03;123748;1105;104689;-85
2021/03/03 08:31:12;;;;;;;39.30;29.50;;;;;;;1.84;79.21;101849.73;123869;1106;104877;-86
2021/03/03 08:33:55;;;;;;;43.30;30.10;;;;;;;1.91;79.74;101842.06;123889;1105;104357;-84
2021/03/03 08:36:23;;;;;;;32.73;21.65;;;;;;;1.99;78.61;101848.45;123658;1106;104284;-84
2021/03/03 08:38:56;;;;;;;38.95;27.02;;;;;;;1.92;79.19;101843.83;123607;1104;104187;-84
2021/03/03 08:41:26;;;;;;;38.35;27.70;;;;;;;1.91;79.21;101845.58;123578;1105;104396;-84
2021/03/03 08:43:58;;;;;;;50.67;34.27;;;;;;;1.93;79.03;101830.77;123745;1105;104124;-84
2021/03/03 08:46:25;;;;;;;45.17;33.23;;;;;;;1.99;79.01;101836.20;123907;1105;104406;-84
2021/03/03 08:48:57;;;;;;;45.25;31.45;;;;;;;2.06;79.52;101844.29;123788;1106;104344;-83
2021/03/03 08:51:38;;;;;;;49.18;33.55;;;;;;;2.01;78.69;101836.24;123941;1105;106385;-84
2021/03/03 08:54:17;;;;;;;43.07;31.13;;;;;;;2.10;79.63;101836.53;123767;1105;104255;-85
2021/03/03 08:56:48;;;;;;;51.45;33.50;;;;;;;2.17;78.63;101840.25;123652;1105;104425;-84
2021/03/03 08:59:40;;;;;;;43.90;28.53;;;;;;;2.23;78.53;101837.83;123446;1105;104331;-83
2021/03/03 09:02:43;;;;;;;59.17;40.90;;;;;;;2.15;78.82;101828.81;123231;1105;105374;-83
2021/03/03 09:05:11;;;;;;;65.50;37.13;;;;;;;2.20;79.05;101829.86;123203;1105;104817;-82
2021/03/03 09:07:39;;;;;;;49.13;32.70;;;;;;;2.24;78.81;101821.22;123408;1105;104377;-84
2021/03/03 09:10:15;;;;;;;49.47;30.03;;;;;;;2.16;78.76;101825.34;123618;1105;104737;-83
2021/03/03 09:12:44;;;;;;;50.50;33.98;;;;;;;2.09;79.53;101818.09;123676;1105;104285;-83
2021/03/03 09:15:13;;;;;;;56.92;37.38;;;;;;;2.12;80.05;101815.55;123694;1105;104457;-83
2021/03/03 09:17:39;;;;;;;50.97;36.63;;;;;;;2.18;79.41;101807.88;123999;1106;104226;-82
2021/03/03 09:20:08;;;;;;;51.03;33.00;;;;;;;2.37;79.50;101801.42;123339;1105;104357;-83
2021/03/03 09:22:40;;;;;;;43.57;29.10;;;;;;;2.41;78.42;101799.80;123230;1105;104421;-82
2021/03/03 09:25:16;;;;;;;32.15;26.02;;;;;;;2.36;79.14;101793.50;123180;1105;104255;-81
2021/03/03 09:28:08;;;;;;;39.55;24.90;;;;;;;2.31;79.16;101782.86;123289;1105;104341;-83
2021/03/03 09:30:38;;;;;;;52.13;34.40;;;;;;;2.39;78.92;101794.49;123049;1105;104303;-82
2021/03/03 09:33:08;;;;;;;44.43;28.63;;;;;;;2.40;78.70;101777.88;123408;1105;104252;-82
2021/03/03 09:35:40;;;;;;;23.90;19.42;;;;;;;2.41;78.73;101786.64;123528;1104;104509;-82
2021/03/03 09:38:12;;;;;;;40.25;27.77;;;;;;;2.36;79.57;101783.89;123749;1105;104259;-83
2021/03/03 09:40:41;;;;;;;29.00;20.20;;;;;;;2.37;78.54;101776.89;123620;1105;104344;-83
2021/03/03 09:43:15;;;;;;;44.33;30.23;;;;;;;2.38;79.08;101778.67;123275;1105;104284;-85
2021/03/03 09:45:45;;;;;;;37.85;23.18;;;;;;;2.44;79.06;101776.20;123489;1105;104398;-82
2021/03/03 09:48:32;;;;;;;38.37;26.83;;;;;;;2.41;79.26;101770.88;123816;1105;104159;-82
2021/03/03 09:51:00;;;;;;;42.90;30.70;;;;;;;2.45;79.34;101768.39;123576;1105;104168;-83
2021/03/03 09:53:27;;;;;;;30.87;22.20;;;;;;;2.50;79.37;101769.39;123439;1105;104287;-83
2021/03/03 09:55:55;;;;;;;55.25;35.33;;;;;;;2.52;79.94;101769.46;123494;1106;104306;-82
2021/03/03 09:58:21;;;;;;;39.60;26.87;;;;;;;2.66;79.99;101770.72;123449;1105;107249;-83
2021/03/03 10:00:49;;;;;;;39.37;26.17;;;;;;;2.73;79.02;101771.78;123433;1105;105053;-84
2021/03/03 10:03:21;;;;;;;39.07;24.77;;;;;;;2.71;78.81;101768.23;123448;1105;104287;-82
2021/03/03 10:06:02;;;;;;;48.37;32.50;;;;;;;2.74;79.45;101770.06;123526;1105;104884;-82
2021/03/03 10:08:30;;;;;;;40.83;29.53;;;;;;;2.91;79.03;101763.52;123441;1105;104264;-83
2021/03/03 10:10:59;;;;;;;35.43;22.73;;;;;;;2.90;78.93;101758.22;123491;1105;104651;-83
2021/03/03 10:13:41;;;;;;;27.17;20.53;;;;;;;2.81;78.46;101762.39;123375;1106;104461;-83
2021/03/03 10:16:18;;;;;;;47.65;35.98;;;;;;;2.86;78.89;101759.87;123505;1105;104309;-82
2021/03/03 10:19:06;;;;;;;44.73;32.50;;;;;;;2.90;79.43;101759.09;123587;1105;104360;-85
2021/03/03 10:21:46;;;;;;;38.73;27.73;;;;;;;3.00;78.11;101750.61;123548;1105;105005;-84
2021/03/03 10:24:26;;;;;;;43.10;29.80;;;;;;;3.23;77.89;101752.95;123576;1105;104328;-86
2021/03/03 10:26:54;;;;;;;49.13;34.53;;;;;;;3.39;77.79;101745.45;123593;1105;104262;-84
2021/03/03 10:29:43;;;;;;;46.63;34.15;;;;;;;3.42;77.81;101738.50;123357;1109;105943;-82
2021/03/03 10:32:17;;;;;;;43.97;29.57;;;;;;;3.45;77.03;101735.96;123326;1112;104402;-88
2021/03/03 10:34:46;;;;;;;48.50;35.60;;;;;;;3.50;77.76;101741.33;123319;1109;104488;-83
2021/03/03 10:37:27;;;;;;;32.35;22.48;;;;;;;3.58;76.48;101733.62;123308;1109;104418;-82
2021/03/03 10:40:17;;;;;;;50.35;33.60;;;;;;;3.67;77.03;101728.56;123230;1109;104349;-83
2021/03/03 10:42:51;;;;;;;23.50;19.47;;;;;;;3.63;76.81;101727.59;123246;1108;104961;-82
2021/03/03 10:45:41;;;;;;;32.93;20.43;;;;;;;3.56;76.55;101722.14;122991;1112;104377;-84
2021/03/03 10:48:30;;;;;;;40.33;29.70;;;;;;;3.59;76.50;101725.75;123111;1109;104319;-82
2021/03/03 10:51:02;;;;;;;42.70;30.57;;;;;;;3.71;77.02;101716.36;123367;1105;104444;-81
2021/03/03 10:53:45;;;;;;;41.57;30.07;;;;;;;3.79;76.65;101707.77;123482;1105;104264;-83
2021/03/03 10:56:21;;;;;;;29.93;21.83;;;;;;;3.87;76.74;101707.06;123234;1104;104717;-81
2021/03/03 10:58:58;;;;;;;32.70;28.77;;;;;;;3.82;75.77;101702.55;123528;1105;104449;-82
2021/03/03 11:01:46;;;;;;;50.20;33.60;;;;;;;3.88;76.99;101703.55;123578;1105;104206;-83
2021/03/03 11:04:18;;;;;;;51.85;36.30;;;;;;;4.07;76.14;101695.20;123394;1106;104386;-83
2021/03/03 11:06:48;;;;;;;41.67;31.10;;;;;;;4.14;75.92;101689.18;123565;1105;104185;-83
2021/03/03 11:09:21;;;;;;;50.90;35.03;;;;;;;4.27;76.07;101687.70;123488;1105;104316;-81
2021/03/03 11:11:54;;;;;;;45.80;32.25;;;;;;;4.29;76.03;101682.45;123600;1105;104437;-82
2021/03/03 11:14:22;;;;;;;41.90;29.77;;;;;;;4.15;75.70;101676.91;123465;1106;104219;-83
2021/03/03 11:16:54;;;;;;;45.73;32.40;;;;;;;4.09;75.92;101666.23;123392;1105;104329;-83
2021/03/03 11:19:21;;;;;;;37.33;28.05;;;;;;;4.10;75.74;101660.98;123470;1106;104980;-83
2021/03/03 11:21:47;;;;;;;42.60;32.77;;;;;;;4.23;75.88;101651.58;123624;1105;104377;-81
2021/03/03 11:24:20;;;;;;;43.73;31.68;;;;;;;4.38;75.77;101645.71;123436;1105;104416;-81